createdAt,value
2018-10-09T00:01:42.203Z,21.70
2018-10-09T00:04:10.787Z,22.40
2018-10-09T00:06:39.809Z,22.10
2018-10-09T00:09:20.543Z,21.03
2018-10-09T00:11:49.669Z,27.87
2018-10-09T00:14:19.829Z,20.17
2018-10-09T00:16:51.406Z,16.83
2018-10-09T00:19:21.264Z,18.17
2018-10-09T00:21:50.435Z,17.67
2018-10-09T00:24:19.882Z,15.83
2018-10-09T00:26:51.780Z,18.83
2018-10-09T00:29:20.707Z,15.93
2018-10-09T00:31:51.753Z,17.80
2018-10-09T00:34:20.766Z,17.83
2018-10-09T00:36:52.265Z,15.53
2018-10-09T00:39:24.793Z,17.03
2018-10-09T00:41:53.966Z,16.53
2018-10-09T00:44:25.214Z,16.27
2018-10-09T00:46:54.356Z,15.50
2018-10-09T00:49:25.570Z,17.37
2018-10-09T00:51:54.915Z,15.20
2018-10-09T00:54:24.638Z,16.13
2018-10-09T00:56:53.701Z,15.63
2018-10-09T00:59:25.277Z,19.00
2018-10-09T01:02:00.700Z,17.40
2018-10-09T01:04:29.803Z,22.53
2018-10-09T01:07:06.658Z,18.47
2018-10-09T01:09:41.294Z,21.67
2018-10-09T01:12:11.643Z,17.40
2018-10-09T01:14:50.460Z,17.37
2018-10-09T01:17:23.066Z,14.77
2018-10-09T01:19:51.540Z,18.50
2018-10-09T01:22:34.784Z,16.20
2018-10-09T01:25:04.494Z,14.70
2018-10-09T01:27:35.616Z,12.57
2018-10-09T01:30:10.986Z,15.30
2018-10-09T01:32:41.506Z,18.57
2018-10-09T01:35:15.778Z,15.27
2018-10-09T01:37:44.390Z,15.93
2018-10-09T01:40:13.196Z,16.77
2018-10-09T01:42:42.666Z,18.07
2018-10-09T01:45:12.655Z,19.20
2018-10-09T01:47:42.240Z,17.00
2018-10-09T01:50:11.712Z,17.93
2018-10-09T01:52:41.162Z,15.20
2018-10-09T01:55:16.051Z,16.10
2018-10-09T01:57:45.589Z,16.43
2018-10-09T02:00:14.805Z,18.67
2018-10-09T02:02:45.900Z,15.70
2018-10-09T02:05:15.311Z,16.43
2018-10-09T02:07:44.679Z,17.27
2018-10-09T02:10:19.743Z,17.97
2018-10-09T02:12:48.901Z,16.87
2018-10-09T02:15:18.893Z,15.40
2018-10-09T02:17:47.973Z,16.67
2018-10-09T02:20:17.133Z,15.13
2018-10-09T02:22:46.659Z,18.37
2018-10-09T02:25:15.801Z,17.50
2018-10-09T02:27:45.013Z,17.47
2018-10-09T02:30:13.818Z,18.10
2018-10-09T02:32:42.897Z,20.40
2018-10-09T02:35:14.016Z,17.70
2018-10-09T02:37:43.181Z,21.00
2018-10-09T02:40:12.777Z,17.97
2018-10-09T02:42:44.032Z,16.40
2018-10-09T02:45:14.355Z,18.33
2018-10-09T02:47:45.500Z,22.30
2018-10-09T02:50:20.464Z,18.33
2018-10-09T02:52:52.097Z,15.63
2018-10-09T02:55:21.406Z,16.47
2018-10-09T02:57:50.328Z,16.47
2018-10-09T03:00:19.286Z,18.40
2018-10-09T03:02:49.117Z,16.30
2018-10-09T03:05:19.012Z,17.10
2018-10-09T03:07:49.071Z,19.10
2018-10-09T03:10:17.898Z,16.23
2018-10-09T03:12:49.862Z,19.57
2018-10-09T03:15:19.019Z,18.00
2018-10-09T03:17:49.218Z,21.70
2018-10-09T03:20:19.589Z,19.90
2018-10-09T03:22:48.650Z,23.13
2018-10-09T03:25:18.650Z,21.50
2018-10-09T03:27:47.768Z,21.53
2018-10-09T03:30:16.935Z,24.03
2018-10-09T03:32:46.073Z,20.33
2018-10-09T03:35:16.040Z,25.07
2018-10-09T03:37:46.163Z,21.63
2018-10-09T03:40:19.438Z,20.07
2018-10-09T03:42:56.565Z,22.80
2018-10-09T03:45:28.484Z,22.27
2018-10-09T03:48:14.428Z,19.63
2018-10-09T03:50:45.140Z,23.90
2018-10-09T03:53:14.392Z,26.63
2018-10-09T03:55:43.876Z,21.57
2018-10-09T03:58:13.135Z,24.50
2018-10-09T04:00:41.808Z,23.80
2018-10-09T04:03:11.037Z,28.87
2018-10-09T04:05:41.365Z,24.40
2018-10-09T04:08:12.487Z,22.00
2018-10-09T04:10:45.613Z,24.33
2018-10-09T04:13:17.305Z,24.17
2018-10-09T04:15:46.451Z,22.77
2018-10-09T04:18:20.272Z,22.70
2018-10-09T04:20:54.801Z,26.67
2018-10-09T04:23:24.792Z,23.43
2018-10-09T04:25:54.983Z,23.97
2018-10-09T04:28:28.398Z,25.00
2018-10-09T04:31:02.911Z,26.83
2018-10-09T04:33:31.845Z,30.93
2018-10-09T04:36:03.672Z,24.50
2018-10-09T04:38:39.705Z,24.57
2018-10-09T04:41:09.313Z,24.17
2018-10-09T04:43:45.368Z,27.17
2018-10-09T04:46:18.548Z,29.20
2018-10-09T04:48:47.110Z,24.80
2018-10-09T04:51:17.318Z,26.87
2018-10-09T04:53:48.051Z,26.50
2018-10-09T04:56:24.533Z,28.07
2018-10-09T04:58:53.392Z,25.37
2018-10-09T05:01:22.905Z,26.47
2018-10-09T05:03:51.899Z,27.17
2018-10-09T05:06:20.654Z,21.97
2018-10-09T05:08:53.076Z,27.47
2018-10-09T05:11:22.874Z,28.00
2018-10-09T05:13:55.496Z,27.53
2018-10-09T05:16:25.231Z,28.07
2018-10-09T05:18:57.760Z,25.50
2018-10-09T05:21:28.497Z,23.33
2018-10-09T05:24:02.783Z,26.53
2018-10-09T05:26:33.362Z,25.23
2018-10-09T05:29:04.428Z,22.10
2018-10-09T05:31:35.952Z,32.47
2018-10-09T05:34:14.980Z,26.13
2018-10-09T05:36:50.260Z,22.90
2018-10-09T05:39:21.308Z,22.20
2018-10-09T05:41:55.453Z,31.17
2018-10-09T05:44:24.069Z,24.67
2018-10-09T05:46:55.282Z,37.00
2018-10-09T05:49:25.770Z,26.50
2018-10-09T05:51:54.437Z,29.73
2018-10-09T05:54:25.262Z,23.87
2018-10-09T05:56:54.642Z,25.97
2018-10-09T05:59:27.131Z,24.63
2018-10-09T06:01:56.991Z,27.33
2018-10-09T06:04:26.667Z,28.70
2018-10-09T06:06:57.720Z,30.23
2018-10-09T06:09:27.686Z,31.67
2018-10-09T06:11:57.851Z,30.33
2018-10-09T06:14:27.724Z,34.83
2018-10-09T06:19:47.946Z,33.70
2018-10-09T06:22:25.186Z,27.93
2018-10-09T06:24:55.704Z,32.47
2018-10-09T06:27:25.486Z,29.20
2018-10-09T06:29:55.759Z,29.50
2018-10-09T06:32:26.136Z,33.23
2018-10-09T06:34:57.970Z,35.87
2018-10-09T06:37:27.786Z,33.73
2018-10-09T06:39:59.003Z,29.63
2018-10-09T06:42:29.161Z,38.53
2018-10-09T06:44:59.252Z,28.83
2018-10-09T06:47:29.070Z,36.37
2018-10-09T06:49:58.812Z,30.67
2018-10-09T06:52:28.385Z,29.73
2018-10-09T06:54:58.682Z,36.63
2018-10-09T06:57:30.316Z,34.03
2018-10-09T07:02:43.020Z,31.93
2018-10-09T07:05:13.620Z,36.90
2018-10-09T07:07:43.404Z,38.23
2018-10-09T07:12:54.100Z,44.60
2018-10-09T07:15:26.875Z,35.00
2018-10-09T07:18:00.048Z,33.13
2018-10-09T07:20:31.206Z,33.97
2018-10-09T07:23:02.096Z,35.83
2018-10-09T07:25:33.286Z,43.63
2018-10-09T07:28:05.520Z,41.37
2018-10-09T07:30:36.130Z,35.90
2018-10-09T07:33:05.728Z,42.23
2018-10-09T07:35:37.466Z,34.60
2018-10-09T07:38:08.629Z,36.07
2018-10-09T07:40:39.367Z,38.00
2018-10-09T07:43:10.461Z,39.03
2018-10-09T07:45:48.129Z,41.97
2018-10-09T07:48:18.124Z,30.67
2018-10-09T07:50:48.222Z,37.47
2018-10-09T07:53:19.540Z,39.73
2018-10-09T07:55:49.959Z,34.10
2018-10-09T07:58:20.090Z,37.17
2018-10-09T08:00:50.403Z,37.27
2018-10-09T08:03:20.357Z,31.97
2018-10-09T08:05:50.216Z,33.53
2018-10-09T08:08:22.118Z,33.23
2018-10-09T08:10:59.814Z,29.57
2018-10-09T08:13:32.959Z,32.93
2018-10-09T08:16:02.243Z,38.87
2018-10-09T08:18:31.731Z,30.83
2018-10-09T08:21:01.190Z,32.27
2018-10-09T08:23:35.975Z,34.30
2018-10-09T08:26:05.567Z,35.13
2018-10-09T08:28:47.427Z,44.13
2018-10-09T08:31:17.823Z,37.03
2018-10-09T08:33:48.523Z,35.57
2018-10-09T08:36:18.039Z,40.50
2018-10-09T08:38:49.345Z,43.10
2018-10-09T08:41:20.140Z,35.73
2018-10-09T08:43:49.785Z,35.37
2018-10-09T08:46:24.595Z,36.63
2018-10-09T08:48:54.155Z,44.00
2018-10-09T08:51:23.829Z,33.20
2018-10-09T08:53:57.362Z,34.83
2018-10-09T08:56:27.677Z,36.33
2018-10-09T08:58:57.306Z,30.47
2018-10-09T09:01:27.989Z,33.47
2018-10-09T09:03:57.704Z,31.67
2018-10-09T09:06:27.078Z,35.27
2018-10-09T09:08:57.735Z,28.67
2018-10-09T09:11:29.237Z,30.07
2018-10-09T09:14:02.767Z,29.63
2018-10-09T09:16:34.237Z,35.27
2018-10-09T09:19:04.455Z,27.00
2018-10-09T09:21:33.911Z,29.77
2018-10-09T09:24:03.439Z,27.73
2018-10-09T09:26:33.199Z,23.03
2018-10-09T09:29:10.271Z,23.17
2018-10-09T09:31:48.961Z,25.93
2018-10-09T09:34:28.663Z,24.17
2018-10-09T09:37:05.176Z,24.93
2018-10-09T09:39:38.834Z,20.60
2018-10-09T09:42:08.646Z,25.67
2018-10-09T09:44:41.976Z,23.43
2018-10-09T09:47:11.522Z,27.03
2018-10-09T09:49:41.110Z,22.80
2018-10-09T09:52:10.460Z,22.37
2018-10-09T09:54:39.702Z,22.33
2018-10-09T09:57:11.402Z,21.17
2018-10-09T09:59:40.704Z,23.97
2018-10-09T10:02:10.161Z,21.33
2018-10-09T10:04:39.934Z,22.07
2018-10-09T10:07:11.576Z,21.60
2018-10-09T10:09:41.467Z,20.13
2018-10-09T10:12:15.096Z,20.33
2018-10-09T10:14:44.570Z,19.97
2018-10-09T10:17:13.939Z,21.40
2018-10-09T10:19:48.698Z,21.80
2018-10-09T10:22:19.518Z,22.93
2018-10-09T10:24:53.707Z,18.17
2018-10-09T10:27:23.194Z,17.47
2018-10-09T10:29:54.474Z,17.90
2018-10-09T10:32:25.842Z,18.63
2018-10-09T10:34:55.471Z,18.53
2018-10-09T10:37:25.390Z,18.77
2018-10-09T10:39:58.910Z,17.13
2018-10-09T10:42:28.454Z,15.43
2018-10-09T10:45:03.108Z,14.83
2018-10-09T10:47:34.697Z,15.10
2018-10-09T10:50:07.364Z,14.57
2018-10-09T10:52:38.032Z,15.10
2018-10-09T10:55:13.881Z,14.23
2018-10-09T10:57:43.346Z,16.37
2018-10-09T11:00:16.015Z,13.20
2018-10-09T11:02:50.654Z,14.00
2018-10-09T11:05:26.664Z,13.70
2018-10-09T11:07:57.201Z,13.67
2018-10-09T11:10:28.759Z,17.50
2018-10-09T11:13:00.302Z,13.47
2018-10-09T11:15:31.751Z,19.13
2018-10-09T11:18:01.345Z,17.87
2018-10-09T11:20:34.907Z,14.87
2018-10-09T11:23:09.911Z,16.57
2018-10-09T11:25:39.493Z,14.17
2018-10-09T11:28:09.154Z,14.57
2018-10-09T11:30:44.855Z,12.03
2018-10-09T11:33:14.406Z,12.13
2018-10-09T11:35:43.671Z,11.63
2018-10-09T11:38:15.194Z,17.30
2018-10-09T11:40:44.960Z,11.27
2018-10-09T11:43:15.506Z,14.50
2018-10-09T11:45:48.372Z,12.40
2018-10-09T11:48:17.396Z,14.20
2018-10-09T11:50:47.126Z,15.50
2018-10-09T11:53:19.614Z,14.63
2018-10-09T11:55:48.714Z,16.27
2018-10-09T11:58:18.161Z,15.80
2018-10-09T12:00:50.164Z,17.27
2018-10-09T12:03:21.674Z,19.40
2018-10-09T12:05:51.835Z,16.53
2018-10-09T12:08:21.245Z,16.50
2018-10-09T12:10:50.995Z,18.30
2018-10-09T12:13:20.746Z,19.13
2018-10-09T12:15:51.484Z,18.70
2018-10-09T12:18:22.392Z,16.77
2018-10-09T12:20:53.195Z,20.87
2018-10-09T12:23:24.705Z,16.93
2018-10-09T12:25:54.383Z,18.13
2018-10-09T12:28:24.220Z,17.17
2018-10-09T12:30:54.801Z,16.47
2018-10-09T12:33:24.822Z,17.27
2018-10-09T12:35:56.299Z,17.00
2018-10-09T12:38:25.806Z,16.00
2018-10-09T12:40:57.299Z,17.33
2018-10-09T12:43:31.419Z,15.57
2018-10-09T12:46:01.157Z,16.27
2018-10-09T12:48:33.300Z,14.27
2018-10-09T12:51:03.965Z,20.00
2018-10-09T12:53:34.665Z,16.33
2018-10-09T12:56:06.598Z,18.67
2018-10-09T12:58:36.393Z,16.47
2018-10-09T13:01:08.049Z,16.43
2018-10-09T13:03:43.221Z,19.10
2018-10-09T13:06:13.671Z,13.67
2018-10-09T13:08:46.477Z,17.10
2018-10-09T13:11:19.384Z,22.97
2018-10-09T13:13:49.739Z,23.10
2018-10-09T13:16:19.377Z,22.23
2018-10-09T13:18:49.862Z,19.20
2018-10-09T13:21:20.699Z,19.47
2018-10-09T13:23:50.932Z,20.80
2018-10-09T13:26:22.650Z,22.37
2018-10-09T13:28:52.728Z,26.93
2018-10-09T13:31:23.595Z,19.40
2018-10-09T13:33:53.146Z,17.90
2018-10-09T13:36:22.929Z,20.13
2018-10-09T13:38:54.446Z,20.70
2018-10-09T13:41:23.873Z,17.77
2018-10-09T13:43:53.438Z,20.80
2018-10-09T13:46:23.398Z,17.87
2018-10-09T13:48:52.771Z,18.67
2018-10-09T13:51:23.308Z,19.23
2018-10-09T13:53:54.458Z,20.03
2018-10-09T13:56:26.034Z,19.60
2018-10-09T13:58:55.838Z,21.20
2018-10-09T14:01:25.790Z,22.27
2018-10-09T14:03:55.476Z,19.87
2018-10-09T14:06:25.115Z,18.57
2018-10-09T14:08:54.624Z,18.33
2018-10-09T14:11:26.300Z,23.67
2018-10-09T14:14:02.523Z,18.07
2018-10-09T14:16:34.008Z,23.57
2018-10-09T14:19:04.556Z,21.60
2018-10-09T14:21:34.235Z,19.37
2018-10-09T14:24:03.931Z,21.63
2018-10-09T14:26:34.768Z,16.57
2018-10-09T14:29:06.231Z,17.57
2018-10-09T14:31:38.194Z,20.50
2018-10-09T14:34:10.055Z,21.70
2018-10-09T14:36:39.254Z,22.03
2018-10-09T14:39:09.205Z,20.37
2018-10-09T14:41:38.772Z,18.73
2018-10-09T14:44:08.497Z,18.77
2018-10-09T14:46:37.993Z,17.70
2018-10-09T14:49:06.971Z,17.87
2018-10-09T14:51:39.444Z,16.00
2018-10-09T14:54:08.657Z,22.50
2018-10-09T14:56:38.582Z,18.57
2018-10-09T14:59:07.588Z,16.63
2018-10-09T15:01:37.851Z,19.73
2018-10-09T15:04:07.890Z,18.80
2018-10-09T15:06:36.990Z,18.27
2018-10-09T15:09:09.747Z,17.77
2018-10-09T15:11:38.818Z,17.87
2018-10-09T15:14:09.829Z,19.70
2018-10-09T15:16:39.310Z,24.57
2018-10-09T15:19:09.029Z,16.37
2018-10-09T15:21:38.583Z,18.10
2018-10-09T15:24:07.805Z,19.50
2018-10-09T15:26:38.109Z,18.57
2018-10-09T15:29:08.164Z,19.00
2018-10-09T15:31:37.226Z,15.80
2018-10-09T15:34:06.569Z,17.33
2018-10-09T15:36:35.909Z,15.30
2018-10-09T15:39:07.553Z,14.20
2018-10-09T15:41:36.490Z,12.17
2018-10-09T15:44:06.037Z,14.17
2018-10-09T15:46:35.066Z,11.87
2018-10-09T15:49:04.960Z,15.27
2018-10-09T15:51:33.822Z,10.53
2018-10-09T15:54:05.150Z,11.20
2018-10-09T15:56:34.553Z,12.27
2018-10-09T15:59:03.987Z,16.30
2018-10-09T16:01:33.239Z,10.70
2018-10-09T16:04:02.470Z,13.20
2018-10-09T16:06:33.102Z,13.20
2018-10-09T16:09:02.764Z,14.57
2018-10-09T16:11:33.935Z,12.97
2018-10-09T16:14:05.565Z,12.67
2018-10-09T16:16:37.487Z,12.40
2018-10-09T16:19:07.919Z,20.87
2018-10-09T16:21:36.721Z,9.73
2018-10-09T16:24:09.942Z,12.30
2018-10-09T16:26:42.086Z,12.27
2018-10-09T16:29:11.249Z,13.77
2018-10-09T16:31:43.048Z,14.10
2018-10-09T16:34:12.194Z,12.23
2018-10-09T16:36:42.597Z,13.17
2018-10-09T16:39:14.397Z,12.40
2018-10-09T16:41:50.606Z,12.80
2018-10-09T16:44:21.417Z,12.53
2018-10-09T16:46:56.625Z,15.27
2018-10-09T16:49:28.283Z,12.00
2018-10-09T16:51:57.367Z,11.53
2018-10-09T16:54:27.373Z,12.93
2018-10-09T16:56:58.224Z,18.60
2018-10-09T16:59:28.454Z,17.33
2018-10-09T17:01:57.292Z,19.02
2018-10-09T17:04:27.632Z,14.43
2018-10-09T17:06:56.402Z,10.30
2018-10-09T17:09:24.902Z,10.80
2018-10-09T17:11:55.770Z,18.93
2018-10-09T17:14:24.665Z,12.77
2018-10-09T17:16:54.804Z,18.13
2018-10-09T17:19:25.696Z,11.73
2018-10-09T17:21:56.179Z,16.97
2018-10-09T17:24:25.259Z,16.00
2018-10-09T17:26:54.005Z,19.37
2018-10-09T17:29:22.809Z,20.03
2018-10-09T17:31:51.444Z,17.87
2018-10-09T17:34:20.436Z,14.93
2018-10-09T17:36:51.933Z,9.87
2018-10-09T17:39:22.839Z,14.37
2018-10-09T17:41:54.080Z,11.27
2018-10-09T17:44:23.783Z,11.13
2018-10-09T17:46:53.672Z,14.97
2018-10-09T17:49:27.900Z,13.63
2018-10-09T17:51:58.219Z,10.17
2018-10-09T17:54:29.568Z,9.73
2018-10-09T17:56:58.335Z,10.33
2018-10-09T17:59:28.325Z,13.87
2018-10-09T18:02:00.783Z,15.57
2018-10-09T18:04:29.774Z,18.17
2018-10-09T18:06:58.780Z,18.57
2018-10-09T18:09:27.609Z,29.03
2018-10-09T18:11:56.407Z,22.33
2018-10-09T18:14:25.126Z,24.73
2018-10-09T18:16:53.836Z,22.30
2018-10-09T18:19:22.845Z,23.13
2018-10-09T18:21:51.807Z,18.57
2018-10-09T18:24:21.719Z,20.70
2018-10-09T18:26:50.451Z,19.77
2018-10-09T18:29:19.346Z,16.40
2018-10-09T18:31:49.361Z,19.20
2018-10-09T18:34:18.274Z,16.20
2018-10-09T18:36:46.908Z,17.40
2018-10-09T18:39:16.735Z,12.93
2018-10-09T18:41:46.413Z,12.17
2018-10-09T18:44:15.670Z,12.27
2018-10-09T18:46:44.436Z,17.30
2018-10-09T18:49:13.245Z,14.77
2018-10-09T18:51:42.357Z,13.80
2018-10-09T18:54:11.099Z,19.50
2018-10-09T18:56:40.754Z,19.40
2018-10-09T18:59:09.424Z,9.07
2018-10-09T19:01:39.333Z,15.13
2018-10-09T19:04:10.724Z,16.60
2018-10-09T19:06:40.525Z,13.60
2018-10-09T19:09:13.508Z,14.40
2018-10-09T19:11:42.733Z,15.63
2018-10-09T19:14:12.748Z,13.27
2018-10-09T19:16:42.644Z,12.57
2018-10-09T19:19:13.738Z,14.40
2018-10-09T19:21:44.264Z,12.87
2018-10-09T19:24:15.420Z,11.80
2018-10-09T19:26:46.872Z,11.70
2018-10-09T19:29:17.253Z,11.97
2018-10-09T19:31:48.255Z,16.20
2018-10-09T19:34:19.770Z,12.93
2018-10-09T19:36:50.262Z,13.23
2018-10-09T19:39:20.911Z,10.63
2018-10-09T19:41:50.378Z,11.93
2018-10-09T19:44:19.586Z,13.20
2018-10-09T19:46:52.974Z,13.93
2018-10-09T19:49:23.526Z,12.87
2018-10-09T19:51:54.581Z,14.63
2018-10-09T19:54:24.159Z,22.90
2018-10-09T19:56:54.184Z,31.33
2018-10-09T19:59:28.305Z,29.77
2018-10-09T20:01:59.491Z,19.37
2018-10-09T20:04:29.023Z,15.77
2018-10-09T20:07:01.745Z,13.93
2018-10-09T20:09:36.217Z,14.83
2018-10-09T20:12:06.438Z,15.47
2018-10-09T20:14:39.696Z,17.83
2018-10-09T20:17:09.418Z,15.33
2018-10-09T20:19:39.248Z,20.63
2018-10-09T20:22:10.971Z,16.33
2018-10-09T20:24:40.851Z,19.37
2018-10-09T20:27:12.085Z,22.40
2018-10-09T20:29:42.694Z,16.00
2018-10-09T20:32:12.154Z,14.90
2018-10-09T20:34:43.137Z,15.83
2018-10-09T20:37:12.950Z,22.80
2018-10-09T20:39:42.638Z,20.10
2018-10-09T20:42:14.128Z,19.03
2018-10-09T20:44:43.378Z,16.33
2018-10-09T20:47:14.586Z,17.57
2018-10-09T20:49:43.676Z,20.80
2018-10-09T20:52:12.612Z,23.00
2018-10-09T20:54:41.631Z,29.17
2018-10-09T20:57:11.402Z,25.40
2018-10-09T20:59:40.944Z,22.83
2018-10-09T21:02:09.925Z,32.60
2018-10-09T21:04:38.572Z,34.97
2018-10-09T21:07:07.799Z,45.97
2018-10-09T21:09:37.967Z,42.63
2018-10-09T21:12:06.597Z,41.60
2018-10-09T21:14:35.145Z,33.53
2018-10-09T21:17:20.697Z,30.13
2018-10-09T21:19:58.643Z,34.10
2018-10-09T21:22:35.385Z,36.20
2018-10-09T21:25:04.285Z,33.60
2018-10-09T21:27:34.759Z,54.67
2018-10-09T21:30:03.562Z,50.37
2018-10-09T21:32:32.688Z,53.17
2018-10-09T21:35:06.063Z,51.37
2018-10-09T21:37:38.350Z,47.53
2018-10-09T21:40:09.771Z,47.57
2018-10-09T21:45:42.547Z,64.80
2018-10-09T21:48:12.625Z,60.20
2018-10-09T21:50:41.583Z,63.13
2018-10-09T21:53:14.301Z,48.97
2018-10-09T21:55:43.404Z,47.73
2018-10-09T21:58:11.902Z,43.43
2018-10-09T22:00:46.165Z,42.07
2018-10-09T22:03:15.686Z,42.60
2018-10-09T22:05:44.410Z,37.30
2018-10-09T22:08:16.862Z,34.10
2018-10-09T22:10:45.444Z,36.47
2018-10-09T22:13:16.322Z,33.57
2018-10-09T22:15:45.020Z,30.43
2018-10-09T22:18:13.632Z,28.47
2018-10-09T22:20:43.240Z,28.20
2018-10-09T22:23:16.028Z,25.40
2018-10-09T22:25:44.650Z,28.30
2018-10-09T22:28:14.239Z,26.23
2018-10-09T22:30:44.294Z,24.13
2018-10-09T22:33:13.148Z,26.10
2018-10-09T22:35:42.627Z,23.77
2018-10-09T22:38:13.759Z,29.77
2018-10-09T22:40:49.671Z,26.93
2018-10-09T22:43:20.011Z,24.57
2018-10-09T22:45:48.577Z,28.37
2018-10-09T22:48:19.660Z,33.97
2018-10-09T22:50:49.353Z,30.77
2018-10-09T22:53:19.001Z,32.93
2018-10-09T22:55:48.535Z,25.23
2018-10-09T22:58:20.339Z,31.37
2018-10-09T23:00:49.023Z,22.83
2018-10-09T23:03:20.756Z,28.97
2018-10-09T23:05:51.241Z,25.57
2018-10-09T23:08:27.307Z,33.20
2018-10-09T23:10:56.987Z,26.23
2018-10-09T23:13:25.798Z,27.03
2018-10-09T23:15:54.308Z,25.87
2018-10-09T23:18:23.982Z,28.10
2018-10-09T23:20:52.682Z,26.53
2018-10-09T23:23:22.219Z,31.90
2018-10-09T23:25:51.004Z,26.47
2018-10-09T23:28:21.432Z,28.37
2018-10-09T23:30:50.158Z,24.57
2018-10-09T23:33:19.743Z,28.90
2018-10-09T23:35:50.377Z,27.60
2018-10-09T23:38:20.762Z,23.03
2018-10-09T23:40:49.170Z,26.37
2018-10-09T23:43:18.909Z,27.10
2018-10-09T23:45:48.415Z,28.37
2018-10-09T23:48:17.114Z,32.93
2018-10-09T23:50:50.702Z,33.10
2018-10-09T23:53:26.468Z,30.53
2018-10-09T23:56:03.449Z,29.47
2018-10-09T23:58:35.434Z,30.67
